Private Wetterstation Wechselburg
Wetterdaten: Woche 12.06.23 - 18.06.23 (KW24)
Datum Zeit Temp. +2m Bodentemp. Temp.+5cm Temp. Wind Windchill X Diff Temp. Feuchte +2m Feuchte +5cm Luftdruck Regen Wind Richtung Sonnenschein Taupunkt Windchill Windben
12.06.2023 00:00 14,5 C 18,7 C 13,3 C 29,0 C 29,0 C 14,5 C 77 % 73 % 1018,6 hPa 0,0 l/m 0,0 km/h (0 Bft) - - 0,00 h 10,5 C 29,0 C 0,0 km/h (0 Bft)
12.06.2023 01:00 13,3 C 18,5 C 12,4 C 29,0 C 29,0 C 15,7 C 80 % 74 % 1018,7 hPa 0,0 l/m 0,0 km/h (0 Bft) - - 0,00 h 10,0 C 29,0 C 0,0 km/h (0 Bft)
12.06.2023 02:00 12,5 C 18,5 C 11,7 C 29,0 C 29,0 C 16,5 C 82 % 76 % 1018,4 hPa 0,0 l/m 0,0 km/h (0 Bft) - - 0,00 h 9,5 C 29,0 C 0,0 km/h (0 Bft)
12.06.2023 03:00 11,5 C 18,3 C 10,7 C 29,0 C 29,0 C 17,5 C 84 % 76 % 1018,5 hPa 0,0 l/m 0,0 km/h (0 Bft) - - 0,00 h 8,9 C 29,0 C 0,0 km/h (0 Bft)
12.06.2023 04:00 10,7 C 18,1 C 10,0 C 29,0 C 29,0 C 18,3 C 84 % 76 % 1018,5 hPa 0,0 l/m 0,0 km/h (0 Bft) - - 0,00 h 8,1 C 29,0 C 0,0 km/h (0 Bft)
12.06.2023 05:00 10,0 C 18,0 C 9,4 C 29,0 C 29,0 C 19,0 C 85 % 77 % 1018,9 hPa 0,0 l/m 0,0 km/h (0 Bft) - - 0,83 h 7,6 C 29,0 C 0,0 km/h (0 Bft)
12.06.2023 06:00 10,1 C 17,7 C 9,8 C 29,0 C 29,0 C 18,9 C 87 % 79 % 1019,0 hPa 0,0 l/m 0,0 km/h (0 Bft) - - 1,00 h 8,0 C 29,0 C 0,0 km/h (0 Bft)
12.06.2023 07:00 12,2 C 17,3 C 12,9 C 29,0 C 29,0 C 16,8 C 88 % 77 % 1019,0 hPa 0,0 l/m 0,0 km/h (0 Bft) - - 1,00 h 10,2 C 29,0 C 0,0 km/h (0 Bft)
12.06.2023 08:00 17,8 C 17,1 C 16,5 C 29,0 C 29,0 C 11,2 C 75 % 64 % 1019,1 hPa 0,0 l/m 0,0 km/h (0 Bft) - - 1,00 h 13,2 C 29,0 C 0,0 km/h (0 Bft)
12.06.2023 09:00 21,0 C 17,1 C 19,0 C 29,0 C 29,0 C 8,0 C 58 % 54 % 1019,2 hPa 0,0 l/m 0,0 km/h (0 Bft) - - 1,00 h 12,4 C 29,0 C 0,0 km/h (0 Bft)
12.06.2023 10:00 21,7 C 17,2 C 20,9 C 29,0 C 29,0 C 7,3 C 45 % 41 % 1019,3 hPa 0,0 l/m 0,0 km/h (0 Bft) - - 1,00 h 9,3 C 29,0 C 0,0 km/h (0 Bft)
12.06.2023 11:00 22,3 C 17,3 C 21,5 C 29,0 C 29,0 C 6,7 C 43 % 38 % 1018,9 hPa 0,0 l/m 0,0 km/h (0 Bft) - - 1,00 h 9,0 C 29,0 C 0,0 km/h (0 Bft)
12.06.2023 12:00 22,8 C 17,4 C 22,2 C 29,0 C 29,0 C 6,2 C 45 % 40 % 1019,0 hPa 0,0 l/m 0,0 km/h (0 Bft) - - 1,00 h 10,2 C 29,0 C 0,0 km/h (0 Bft)
12.06.2023 13:00 23,5 C 17,6 C 22,7 C 29,0 C 29,0 C 5,5 C 41 % 37 % 1018,5 hPa 0,0 l/m 0,0 km/h (0 Bft) - - 1,00 h 9,6 C 29,0 C 0,0 km/h (0 Bft)
12.06.2023 14:00 23,9 C 17,8 C 24,4 C 29,0 C 29,0 C 5,1 C 40 % 36 % 1018,2 hPa 0,0 l/m 0,0 km/h (0 Bft) - - 1,00 h 9,4 C 29,0 C 0,0 km/h (0 Bft)
12.06.2023 15:00 24,0 C 17,8 C 24,5 C 29,0 C 29,0 C 5,0 C 40 % 35 % 1017,8 hPa 0,0 l/m 0,0 km/h (0 Bft) - - 1,00 h 9,6 C 29,0 C 0,0 km/h (0 Bft)
12.06.2023 16:00 24,0 C 18,0 C 24,7 C 29,0 C 29,0 C 5,0 C 41 % 35 % 1017,6 hPa 0,0 l/m 0,0 km/h (0 Bft) - - 1,00 h 9,8 C 29,0 C 0,0 km/h (0 Bft)
12.06.2023 17:00 23,7 C 18,1 C 24,4 C 29,0 C 29,0 C 5,3 C 43 % 35 % 1017,5 hPa 0,0 l/m 0,0 km/h (0 Bft) - - 1,00 h 10,4 C 29,0 C 0,0 km/h (0 Bft)
12.06.2023 18:00 23,2 C 18,2 C 23,3 C 29,0 C 29,0 C 5,8 C 45 % 36 % 1017,5 hPa 0,0 l/m 0,0 km/h (0 Bft) - - 1,00 h 10,4 C 29,0 C 0,0 km/h (0 Bft)
12.06.2023 19:00 22,5 C 18,3 C 22,2 C 29,0 C 29,0 C 6,5 C 46 % 37 % 1017,1 hPa 0,0 l/m 0,0 km/h (0 Bft) - - 1,00 h 10,3 C 29,0 C 0,0 km/h (0 Bft)
12.06.2023 20:00 21,2 C 18,3 C 20,7 C 29,0 C 29,0 C 7,8 C 48 % 38 % 1017,4 hPa 0,0 l/m 0,0 km/h (0 Bft) - - 1,00 h 9,8 C 29,0 C 0,0 km/h (0 Bft)
12.06.2023 21:00 19,3 C 18,3 C 18,0 C 29,0 C 29,0 C 9,7 C 53 % 42 % 1017,5 hPa 0,0 l/m 0,0 km/h (0 Bft) - - 0,17 h 9,3 C 29,0 C 0,0 km/h (0 Bft)
12.06.2023 22:00 16,8 C 18,3 C 15,4 C 29,0 C 29,0 C 12,2 C 61 % 52 % 1017,5 hPa 0,0 l/m 0,0 km/h (0 Bft) - - 0,00 h 9,3 C 29,0 C 0,0 km/h (0 Bft)
12.06.2023 23:00 14,5 C 18,3 C 13,2 C 29,0 C 29,0 C 14,5 C 70 % 61 % 1017,5 hPa 0,0 l/m 0,0 km/h (0 Bft) - - 0,00 h 9,0 C 29,0 C 0,0 km/h (0 Bft)
13.06.2023 00:00 13,0 C 18,2 C 11,9 C 29,0 C 29,0 C 16,0 C 74 % 66 % 1017,3 hPa 0,0 l/m 0,0 km/h (0 Bft) - - 0,00 h 8,5 C 29,0 C 0,0 km/h (0 Bft)
13.06.2023 01:00 11,6 C 18,1 C 10,7 C 29,0 C 29,0 C 17,4 C 78 % 69 % 1017,1 hPa 0,0 l/m 0,0 km/h (0 Bft) - - 0,00 h 7,9 C 29,0 C 0,0 km/h (0 Bft)
13.06.2023 02:00 10,5 C 18,0 C 9,8 C 29,0 C 29,0 C 18,5 C 80 % 71 % 1017,1 hPa 0,0 l/m 0,0 km/h (0 Bft) - - 0,00 h 7,3 C 29,0 C 0,0 km/h (0 Bft)
13.06.2023 03:00 9,6 C 17,8 C 8,9 C 29,0 C 29,0 C 19,4 C 82 % 73 % 1016,8 hPa 0,0 l/m 0,0 km/h (0 Bft) - - 0,00 h 6,7 C 29,0 C 0,0 km/h (0 Bft)
13.06.2023 04:00 8,8 C 17,7 C 8,2 C 29,0 C 29,0 C 20,1 C 84 % 74 % 1016,8 hPa 0,0 l/m 0,0 km/h (0 Bft) - - 0,00 h 6,2 C 29,0 C 0,0 km/h (0 Bft)
13.06.2023 05:00 8,3 C 17,5 C 7,8 C 29,0 C 29,0 C 20,7 C 85 % 75 % 1016,8 hPa 0,0 l/m 0,0 km/h (0 Bft) - - 0,83 h 5,9 C 29,0 C 0,0 km/h (0 Bft)
13.06.2023 06:00 8,5 C 17,2 C 8,3 C 29,0 C 29,0 C 20,5 C 87 % 77 % 1016,8 hPa 0,0 l/m 0,0 km/h (0 Bft) - - 1,00 h 6,4 C 29,0 C 0,0 km/h (0 Bft)
13.06.2023 07:00 11,4 C 16,9 C 11,8 C 29,0 C 29,0 C 17,6 C 88 % 75 % 1016,6 hPa 0,0 l/m 0,0 km/h (0 Bft) - - 1,00 h 9,4 C 29,0 C 0,0 km/h (0 Bft)
13.06.2023 08:00 16,3 C 16,7 C 14,1 C 29,0 C 29,0 C 12,7 C 80 % 72 % 1016,7 hPa 0,0 l/m 0,0 km/h (0 Bft) - - 1,00 h 12,7 C 29,0 C 0,0 km/h (0 Bft)
13.06.2023 09:00 19,1 C 16,7 C 15,5 C 29,0 C 29,0 C 9,9 C 67 % 70 % 1016,2 hPa 0,0 l/m 0,0 km/h (0 Bft) - - 1,00 h 12,8 C 29,0 C 0,0 km/h (0 Bft)
13.06.2023 10:00 20,8 C 16,8 C 17,8 C 29,0 C 29,0 C 8,2 C 55 % 57 % 1016,0 hPa 0,0 l/m 0,0 km/h (0 Bft) - - 1,00 h 11,4 C 29,0 C 0,0 km/h (0 Bft)
13.06.2023 11:00 22,7 C 16,9 C 19,9 C 29,0 C 29,0 C 6,3 C 48 % 49 % 1015,9 hPa 0,0 l/m 0,0 km/h (0 Bft) - - 1,00 h 10,9 C 29,0 C 0,0 km/h (0 Bft)
13.06.2023 12:00 23,9 C 17,0 C 21,7 C 29,0 C 29,0 C 5,1 C 43 % 45 % 1015,3 hPa 0,0 l/m 0,0 km/h (0 Bft) - - 1,00 h 10,5 C 29,0 C 0,0 km/h (0 Bft)
13.06.2023 13:00 22,5 C 17,2 C 21,0 C 29,0 C 29,0 C 6,5 C 44 % 43 % 1015,1 hPa 0,0 l/m 0,0 km/h (0 Bft) - - 1,00 h 9,8 C 29,0 C 0,0 km/h (0 Bft)
13.06.2023 14:00 22,8 C 17,3 C 21,1 C 29,0 C 29,0 C 6,2 C 45 % 44 % 1014,5 hPa 0,0 l/m 0,0 km/h (0 Bft) - - 1,00 h 10,3 C 29,0 C 0,0 km/h (0 Bft)
13.06.2023 15:00 22,9 C 17,4 C 20,7 C 29,0 C 29,0 C 6,1 C 46 % 48 % 1013,9 hPa 0,0 l/m 0,0 km/h (0 Bft) - - 1,00 h 10,8 C 29,0 C 0,0 km/h (0 Bft)
13.06.2023 16:00 22,7 C 17,5 C 22,2 C 29,0 C 29,0 C 6,3 C 42 % 38 % 1013,7 hPa 0,0 l/m 0,0 km/h (0 Bft) - - 1,00 h 9,0 C 29,0 C 0,0 km/h (0 Bft)
13.06.2023 17:00 22,6 C 17,6 C 22,7 C 29,0 C 29,0 C 6,4 C 41 % 34 % 1013,5 hPa 0,0 l/m 0,0 km/h (0 Bft) - - 1,00 h 8,5 C 29,0 C 0,0 km/h (0 Bft)
13.06.2023 18:00 21,7 C 17,6 C 21,4 C 29,0 C 29,0 C 7,3 C 43 % 35 % 1013,8 hPa 0,0 l/m 0,0 km/h (0 Bft) - - 1,00 h 8,6 C 29,0 C 0,0 km/h (0 Bft)
13.06.2023 19:00 20,3 C 17,6 C 20,1 C 29,0 C 29,0 C 8,7 C 48 % 38 % 1014,2 hPa 0,0 l/m 0,0 km/h (0 Bft) - - 1,00 h 8,9 C 29,0 C 0,0 km/h (0 Bft)
13.06.2023 20:00 18,8 C 17,6 C 18,4 C 29,0 C 29,0 C 10,2 C 54 % 42 % 1014,6 hPa 0,0 l/m 0,0 km/h (0 Bft) - - 1,00 h 9,2 C 29,0 C 0,0 km/h (0 Bft)
13.06.2023 21:00 16,9 C 17,7 C 16,1 C 29,0 C 29,0 C 12,1 C 59 % 47 % 1014,9 hPa 0,0 l/m 0,0 km/h (0 Bft) - - 0,25 h 8,8 C 29,0 C 0,0 km/h (0 Bft)
13.06.2023 22:00 15,3 C 17,6 C 14,7 C 29,0 C 29,0 C 13,7 C 63 % 50 % 1015,6 hPa 0,0 l/m 0,0 km/h (0 Bft) - - 0,00 h 8,3 C 29,0 C 0,0 km/h (0 Bft)
13.06.2023 23:00 13,7 C 17,6 C 12,8 C 29,0 C 29,0 C 15,3 C 69 % 56 % 1016,2 hPa 0,0 l/m 0,0 km/h (0 Bft) - - 0,00 h 8,0 C 29,0 C 0,0 km/h (0 Bft)
14.06.2023 00:00 12,4 C 17,5 C 11,4 C 29,0 C 29,0 C 16,6 C 73 % 60 % 1016,3 hPa 0,0 l/m 0,0 km/h (0 Bft) - - 0,00 h 7,6 C 29,0 C 0,0 km/h (0 Bft)
14.06.2023 01:00 10,9 C 17,3 C 10,2 C 29,0 C 29,0 C 18,1 C 78 % 65 % 1016,6 hPa 0,0 l/m 0,0 km/h (0 Bft) - - 0,00 h 7,2 C 29,0 C 0,0 km/h (0 Bft)
14.06.2023 02:00 10,2 C 17,2 C 9,6 C 29,0 C 29,0 C 18,8 C 81 % 68 % 1016,6 hPa 0,0 l/m 0,0 km/h (0 Bft) - - 0,00 h 7,0 C 29,0 C 0,0 km/h (0 Bft)
14.06.2023 03:00 9,6 C 17,1 C 8,9 C 29,0 C 29,0 C 19,4 C 83 % 70 % 1016,6 hPa 0,0 l/m 0,0 km/h (0 Bft) - - 0,00 h 6,8 C 29,0 C 0,0 km/h (0 Bft)
14.06.2023 04:00 9,1 C 17,0 C 8,6 C 29,0 C 29,0 C 19,9 C 84 % 70 % 1016,4 hPa 0,0 l/m 0,0 km/h (0 Bft) - - 0,00 h 6,6 C 29,0 C 0,0 km/h (0 Bft)
14.06.2023 05:00 8,7 C 16,8 C 8,1 C 29,0 C 29,0 C 20,3 C 86 % 72 % 1016,6 hPa 0,0 l/m 0,0 km/h (0 Bft) - - 0,83 h 6,4 C 29,0 C 0,0 km/h (0 Bft)
14.06.2023 06:00 8,9 C 16,6 C 8,7 C 29,0 C 29,0 C 20,1 C 86 % 74 % 1017,2 hPa 0,0 l/m 0,0 km/h (0 Bft) - - 0,95 h 6,7 C 29,0 C 0,0 km/h (0 Bft)
14.06.2023 07:00 11,5 C 16,3 C 12,1 C 29,0 C 29,0 C 17,5 C 86 % 70 % 1017,7 hPa 0,0 l/m 0,0 km/h (0 Bft) - - 1,05 h 9,2 C 29,0 C 0,0 km/h (0 Bft)
14.06.2023 08:00 13,8 C 16,2 C 13,2 C 29,0 C 29,0 C 15,2 C 80 % 66 % 1017,9 hPa 0,0 l/m 0,0 km/h (0 Bft) - - 0,95 h 10,4 C 29,0 C 0,0 km/h (0 Bft)
14.06.2023 09:00 15,9 C 16,2 C 15,1 C 29,0 C 29,0 C 13,1 C 71 % 61 % 1018,2 hPa 0,0 l/m 0,0 km/h (0 Bft) - - 1,05 h 10,7 C 29,0 C 0,0 km/h (0 Bft)
14.06.2023 10:00 16,8 C 16,2 C 16,7 C 29,0 C 29,0 C 12,2 C 65 % 51 % 1018,2 hPa 0,0 l/m 0,0 km/h (0 Bft) - - 1,00 h 10,1 C 29,0 C 0,0 km/h (0 Bft)
14.06.2023 11:00 18,3 C 16,3 C 18,0 C 29,0 C 29,0 C 10,7 C 59 % 47 % 1018,4 hPa 0,0 l/m 0,0 km/h (0 Bft) - - 1,00 h 10,1 C 29,0 C 0,0 km/h (0 Bft)
14.06.2023 12:00 19,4 C 16,4 C 18,9 C 29,0 C 29,0 C 9,6 C 56 % 45 % 1018,4 hPa 0,0 l/m 0,0 km/h (0 Bft) - - 1,00 h 10,2 C 29,0 C 0,0 km/h (0 Bft)
14.06.2023 13:00 20,9 C 16,5 C 19,6 C 29,0 C 29,0 C 8,1 C 50 % 42 % 1018,0 hPa 0,0 l/m 0,0 km/h (0 Bft) - - 1,00 h 10,1 C 29,0 C 0,0 km/h (0 Bft)
14.06.2023 14:00 20,4 C 16,6 C 20,9 C 29,0 C 29,0 C 8,6 C 50 % 41 % 1018,1 hPa 0,0 l/m 0,0 km/h (0 Bft) - - 1,00 h 9,7 C 29,0 C 0,0 km/h (0 Bft)
14.06.2023 15:00 20,0 C 16,7 C 20,1 C 29,0 C 29,0 C 9,0 C 53 % 43 % 1017,8 hPa 0,0 l/m 0,0 km/h (0 Bft) - - 1,00 h 10,1 C 29,0 C 0,0 km/h (0 Bft)
14.06.2023 16:00 19,9 C 16,9 C 20,6 C 29,0 C 29,0 C 9,1 C 58 % 46 % 1017,9 hPa 0,0 l/m 0,0 km/h (0 Bft) - - 1,00 h 11,4 C 29,0 C 0,0 km/h (0 Bft)
14.06.2023 17:00 20,5 C 16,9 C 21,0 C 29,0 C 29,0 C 8,6 C 56 % 45 % 1017,8 hPa 0,0 l/m 0,0 km/h (0 Bft) - - 1,00 h 11,3 C 29,0 C 0,0 km/h (0 Bft)
14.06.2023 18:00 20,4 C 17,0 C 20,3 C 29,0 C 29,0 C 8,6 C 56 % 45 % 1017,5 hPa 0,0 l/m 0,0 km/h (0 Bft) - - 1,00 h 11,2 C 29,0 C 0,0 km/h (0 Bft)
14.06.2023 19:00 20,4 C 17,1 C 19,7 C 29,0 C 29,0 C 8,6 C 54 % 45 % 1017,9 hPa 0,0 l/m 0,0 km/h (0 Bft) - - 1,07 h 10,8 C 29,0 C 0,0 km/h (0 Bft)
14.06.2023 20:00 19,8 C 17,1 C 18,6 C 29,0 C 29,0 C 9,2 C 57 % 48 % 1018,2 hPa 0,0 l/m 0,0 km/h (0 Bft) - - 0,93 h 11,1 C 29,0 C 0,0 km/h (0 Bft)
14.06.2023 21:00 17,4 C 17,3 C 15,9 C 29,0 C 29,0 C 11,6 C 64 % 56 % 1018,4 hPa 0,0 l/m 0,0 km/h (0 Bft) - - 0,25 h 10,5 C 29,0 C 0,0 km/h (0 Bft)
14.06.2023 22:00 15,2 C 17,3 C 13,8 C 29,0 C 29,0 C 13,8 C 72 % 64 % 1018,5 hPa 0,0 l/m 0,0 km/h (0 Bft) - - 0,00 h 10,2 C 29,0 C 0,0 km/h (0 Bft)
14.06.2023 23:00 13,4 C 17,4 C 12,2 C 29,0 C 29,0 C 15,6 C 77 % 70 % 1018,6 hPa 0,0 l/m 0,0 km/h (0 Bft) - - 0,00 h 9,5 C 29,0 C 0,0 km/h (0 Bft)
15.06.2023 00:00 11,9 C 17,4 C 10,8 C 29,0 C 29,0 C 17,1 C 81 % 73 % 1018,6 hPa 0,0 l/m 0,0 km/h (0 Bft) - - 0,00 h 8,6 C 29,0 C 0,0 km/h (0 Bft)
15.06.2023 01:00 10,7 C 17,3 C 9,9 C 29,0 C 29,0 C 18,3 C 83 % 75 % 1018,7 hPa 0,0 l/m 0,0 km/h (0 Bft) - - 0,00 h 7,9 C 29,0 C 0,0 km/h (0 Bft)
15.06.2023 02:00 10,3 C 17,2 C 10,0 C 29,0 C 29,0 C 18,7 C 85 % 76 % 1018,6 hPa 0,0 l/m 0,0 km/h (0 Bft) - - 0,00 h 7,9 C 29,0 C 0,0 km/h (0 Bft)
15.06.2023 03:00 10,6 C 17,1 C 10,6 C 29,0 C 29,0 C 18,4 C 86 % 75 % 1018,5 hPa 0,0 l/m 0,0 km/h (0 Bft) - - 0,00 h 8,4 C 29,0 C 0,0 km/h (0 Bft)
15.06.2023 04:00 10,9 C 17,0 C 10,9 C 29,0 C 29,0 C 18,1 C 86 % 75 % 1018,2 hPa 0,0 l/m 0,0 km/h (0 Bft) - - 0,00 h 8,7 C 29,0 C 0,0 km/h (0 Bft)
15.06.2023 05:00 10,8 C 16,9 C 10,4 C 29,0 C 29,0 C 18,2 C 87 % 76 % 1018,3 hPa 0,0 l/m 0,0 km/h (0 Bft) - - 0,83 h 8,7 C 29,0 C 0,0 km/h (0 Bft)
15.06.2023 06:00 11,1 C 16,7 C 11,5 C 29,0 C 29,0 C 17,9 C 88 % 77 % 1018,7 hPa 0,0 l/m 0,0 km/h (0 Bft) - - 1,07 h 9,1 C 29,0 C 0,0 km/h (0 Bft)
15.06.2023 07:00 11,9 C 16,6 C 12,6 C 29,0 C 29,0 C 17,1 C 88 % 75 % 1018,9 hPa 0,0 l/m 0,0 km/h (0 Bft) - - 0,93 h 9,9 C 29,0 C 0,0 km/h (0 Bft)
15.06.2023 08:00 13,6 C 16,4 C 14,5 C 29,0 C 29,0 C 15,4 C 87 % 72 % 1018,8 hPa 0,0 l/m 0,0 km/h (0 Bft) - - 0,95 h 11,4 C 29,0 C 0,0 km/h (0 Bft)
15.06.2023 09:00 16,2 C 16,3 C 15,9 C 29,0 C 29,0 C 12,8 C 79 % 69 % 1019,1 hPa 0,0 l/m 0,0 km/h (0 Bft) - - 1,05 h 12,5 C 29,0 C 0,0 km/h (0 Bft)
15.06.2023 10:00 18,1 C 16,2 C 17,1 C 29,0 C 29,0 C 10,9 C 72 % 67 % 1019,0 hPa 0,0 l/m 0,0 km/h (0 Bft) - - 1,00 h 13,1 C 29,0 C 0,0 km/h (0 Bft)
15.06.2023 11:00 20,3 C 16,3 C 18,8 C 29,0 C 29,0 C 8,7 C 64 % 60 % 1018,8 hPa 0,0 l/m 0,0 km/h (0 Bft) - - 1,00 h 13,3 C 29,0 C 0,0 km/h (0 Bft)
15.06.2023 12:00 21,4 C 16,4 C 20,3 C 29,0 C 29,0 C 7,6 C 58 % 54 % 1018,5 hPa 0,0 l/m 0,0 km/h (0 Bft) - - 1,00 h 12,8 C 29,0 C 0,0 km/h (0 Bft)
15.06.2023 13:00 22,2 C 16,6 C 20,6 C 29,0 C 29,0 C 6,8 C 54 % 51 % 1018,2 hPa 0,0 l/m 0,0 km/h (0 Bft) - - 1,00 h 12,3 C 29,0 C 0,0 km/h (0 Bft)
15.06.2023 14:00 24,3 C 16,8 C 23,4 C 29,0 C 29,0 C 4,7 C 46 % 44 % 1017,8 hPa 0,0 l/m 0,0 km/h (0 Bft) - - 1,00 h 11,9 C 29,0 C 0,0 km/h (0 Bft)
15.06.2023 15:00 23,7 C 16,9 C 23,2 C 29,0 C 29,0 C 5,3 C 45 % 41 % 1017,3 hPa 0,0 l/m 0,0 km/h (0 Bft) - - 1,00 h 10,9 C 29,0 C 0,0 km/h (0 Bft)
15.06.2023 16:00 24,0 C 17,0 C 23,8 C 29,0 C 29,0 C 5,0 C 42 % 38 % 1017,0 hPa 0,0 l/m 0,0 km/h (0 Bft) - - 1,00 h 10,5 C 29,0 C 0,0 km/h (0 Bft)
15.06.2023 17:00 24,4 C 17,1 C 25,3 C 29,0 C 29,0 C 4,6 C 39 % 35 % 1016,7 hPa 0,0 l/m 0,0 km/h (0 Bft) - - 1,00 h 9,3 C 29,0 C 0,0 km/h (0 Bft)
15.06.2023 18:00 24,4 C 17,2 C 23,9 C 29,0 C 29,0 C 4,6 C 35 % 31 % 1016,4 hPa 0,0 l/m 0,0 km/h (0 Bft) - - 1,00 h 8,0 C 29,0 C 0,0 km/h (0 Bft)
15.06.2023 19:00 23,5 C 17,3 C 22,5 C 29,0 C 29,0 C 5,5 C 38 % 32 % 1016,6 hPa 0,0 l/m 0,0 km/h (0 Bft) - - 1,00 h 8,2 C 29,0 C 0,0 km/h (0 Bft)
15.06.2023 20:00 21,2 C 17,4 C 20,2 C 29,0 C 29,0 C 7,8 C 45 % 37 % 1017,0 hPa 0,0 l/m 0,0 km/h (0 Bft) - - 1,00 h 8,7 C 29,0 C 0,0 km/h (0 Bft)
15.06.2023 21:00 19,2 C 17,4 C 18,1 C 29,0 C 29,0 C 9,8 C 52 % 44 % 1017,0 hPa 0,0 l/m 0,0 km/h (0 Bft) - - 0,25 h 9,0 C 29,0 C 0,0 km/h (0 Bft)
15.06.2023 22:00 17,5 C 17,5 C 16,5 C 29,0 C 29,0 C 11,5 C 59 % 50 % 1017,1 hPa 0,0 l/m 0,0 km/h (0 Bft) - - 0,00 h 9,4 C 29,0 C 0,0 km/h (0 Bft)
15.06.2023 23:00 16,3 C 17,4 C 15,3 C 29,0 C 29,0 C 12,7 C 65 % 56 % 1017,1 hPa 0,0 l/m 0,0 km/h (0 Bft) - - 0,00 h 9,8 C 29,0 C 0,0 km/h (0 Bft)
16.06.2023 00:00 15,4 C 17,4 C 14,9 C 29,0 C 29,0 C 13,6 C 72 % 62 % 1017,0 hPa 0,0 l/m 0,0 km/h (0 Bft) - - 0,00 h 10,3 C 29,0 C 0,0 km/h (0 Bft)
16.06.2023 01:00 14,6 C 17,4 C 14,3 C 29,0 C 29,0 C 14,4 C 74 % 63 % 1017,0 hPa 0,0 l/m 0,0 km/h (0 Bft) - - 0,00 h 10,0 C 29,0 C 0,0 km/h (0 Bft)
16.06.2023 02:00 14,2 C 17,4 C 13,8 C 29,0 C 29,0 C 14,8 C 75 % 64 % 1016,7 hPa 0,0 l/m 0,0 km/h (0 Bft) - - 0,00 h 9,9 C 29,0 C 0,0 km/h (0 Bft)
16.06.2023 03:00 13,5 C 17,3 C 12,8 C 29,0 C 29,0 C 15,5 C 77 % 67 % 1016,2 hPa 0,0 l/m 0,0 km/h (0 Bft) - - 0,00 h 9,5 C 29,0 C 0,0 km/h (0 Bft)
16.06.2023 04:00 12,6 C 17,2 C 12,0 C 29,0 C 29,0 C 16,4 C 79 % 68 % 1016,2 hPa 0,0 l/m 0,0 km/h (0 Bft) - - 0,00 h 9,1 C 29,0 C 0,0 km/h (0 Bft)
16.06.2023 05:00 12,0 C 17,0 C 11,6 C 29,0 C 29,0 C 17,0 C 81 % 70 % 1016,2 hPa 0,0 l/m 0,0 km/h (0 Bft) - - 0,83 h 8,9 C 29,0 C 0,0 km/h (0 Bft)
16.06.2023 06:00 12,5 C 16,9 C 13,0 C 29,0 C 29,0 C 16,5 C 81 % 68 % 1016,4 hPa 0,0 l/m 0,0 km/h (0 Bft) - - 1,00 h 9,4 C 29,0 C 0,0 km/h (0 Bft)
16.06.2023 07:00 14,9 C 16,8 C 14,8 C 29,0 C 29,0 C 14,1 C 79 % 67 % 1016,4 hPa 0,0 l/m 0,0 km/h (0 Bft) - - 1,00 h 11,3 C 29,0 C 0,0 km/h (0 Bft)
16.06.2023 08:00 17,4 C 16,7 C 16,2 C 29,0 C 29,0 C 11,6 C 71 % 63 % 1016,6 hPa 0,0 l/m 0,0 km/h (0 Bft) - - 1,00 h 12,0 C 29,0 C 0,0 km/h (0 Bft)
16.06.2023 09:00 18,1 C 16,7 C 17,4 C 29,0 C 29,0 C 10,9 C 68 % 60 % 1016,8 hPa 0,0 l/m 0,0 km/h (0 Bft) - - 1,00 h 12,1 C 29,0 C 0,0 km/h (0 Bft)
16.06.2023 10:00 17,2 C 16,7 C 17,2 C 29,0 C 29,0 C 11,8 C 71 % 59 % 1017,3 hPa 0,0 l/m 0,0 km/h (0 Bft) - - 0,95 h 11,8 C 29,0 C 0,0 km/h (0 Bft)
16.06.2023 11:00 17,1 C 16,7 C 17,5 C 29,0 C 29,0 C 11,9 C 73 % 61 % 1017,3 hPa 0,0 l/m 0,0 km/h (0 Bft) - - 1,05 h 12,2 C 29,0 C 0,0 km/h (0 Bft)
16.06.2023 12:00 16,3 C 17,0 C 15,7 C 29,0 C 29,0 C 12,7 C 76 % 72 % 1017,6 hPa 0,0 l/m 0,0 km/h (0 Bft) - - 1,00 h 12,0 C 29,0 C 0,0 km/h (0 Bft)
16.06.2023 13:00 15,0 C 17,3 C 14,8 C 29,0 C 29,0 C 14,0 C 85 % 88 % 1017,6 hPa 0,0 l/m 0,0 km/h (0 Bft) - - 1,00 h 12,5 C 29,0 C 0,0 km/h (0 Bft)
16.06.2023 14:00 15,8 C 17,0 C 16,1 C 29,0 C 29,0 C 13,2 C 85 % 82 % 1017,5 hPa 0,0 l/m 0,0 km/h (0 Bft) - - 1,00 h 13,3 C 29,0 C 0,0 km/h (0 Bft)
16.06.2023 15:00 16,5 C 16,9 C 16,6 C 29,0 C 29,0 C 12,5 C 82 % 77 % 1017,2 hPa 0,0 l/m 0,0 km/h (0 Bft) - - 1,00 h 13,4 C 29,0 C 0,0 km/h (0 Bft)
16.06.2023 16:00 17,9 C 16,9 C 18,2 C 29,0 C 29,0 C 11,1 C 77 % 70 % 1016,9 hPa 0,0 l/m 0,0 km/h (0 Bft) - - 1,00 h 13,7 C 29,0 C 0,0 km/h (0 Bft)
16.06.2023 17:00 18,1 C 16,9 C 18,0 C 29,0 C 29,0 C 10,9 C 72 % 64 % 1016,8 hPa 0,0 l/m 0,0 km/h (0 Bft) - - 1,00 h 13,1 C 29,0 C 0,0 km/h (0 Bft)
16.06.2023 18:00 18,6 C 16,9 C 18,3 C 29,0 C 29,0 C 10,3 C 70 % 63 % 1016,3 hPa 0,0 l/m 0,0 km/h (0 Bft) - - 1,00 h 13,1 C 29,0 C 0,0 km/h (0 Bft)
16.06.2023 19:00 18,8 C 17,0 C 18,1 C 29,0 C 29,0 C 10,2 C 69 % 64 % 1016,1 hPa 0,0 l/m 0,0 km/h (0 Bft) - - 1,00 h 12,9 C 29,0 C 0,0 km/h (0 Bft)
16.06.2023 20:00 18,0 C 17,0 C 17,0 C 29,0 C 29,0 C 11,0 C 69 % 65 % 1016,2 hPa 0,0 l/m 0,0 km/h (0 Bft) - - 1,00 h 12,3 C 29,0 C 0,0 km/h (0 Bft)
16.06.2023 21:00 17,0 C 17,0 C 16,0 C 29,0 C 29,0 C 12,0 C 72 % 68 % 1016,0 hPa 0,0 l/m 0,0 km/h (0 Bft) - - 0,25 h 12,0 C 29,0 C 0,0 km/h (0 Bft)
16.06.2023 22:00 15,6 C 17,1 C 14,6 C 29,0 C 29,0 C 13,4 C 77 % 72 % 1015,9 hPa 0,0 l/m 0,0 km/h (0 Bft) - - 0,00 h 11,5 C 29,0 C 0,0 km/h (0 Bft)
16.06.2023 23:00 15,2 C 17,0 C 15,0 C 29,0 C 29,0 C 13,8 C 80 % 72 % 1015,8 hPa 0,0 l/m 0,0 km/h (0 Bft) - - 0,00 h 11,8 C 29,0 C 0,0 km/h (0 Bft)
17.06.2023 00:00 15,2 C 17,1 C 14,8 C 29,0 C 29,0 C 13,8 C 80 % 71 % 1015,7 hPa 0,0 l/m 0,0 km/h (0 Bft) - - 0,00 h 11,8 C 29,0 C 0,0 km/h (0 Bft)
17.06.2023 01:00 14,7 C 17,3 C 13,8 C 29,0 C 29,0 C 14,3 C 81 % 78 % 1015,7 hPa 0,0 l/m 0,0 km/h (0 Bft) - - 0,00 h 11,5 C 29,0 C 0,0 km/h (0 Bft)
17.06.2023 02:00 13,8 C 17,4 C 12,8 C 29,0 C 29,0 C 15,2 C 83 % 84 % 1015,5 hPa 0,0 l/m 0,0 km/h (0 Bft) - - 0,00 h 11,0 C 29,0 C 0,0 km/h (0 Bft)
17.06.2023 03:00 12,8 C 17,3 C 11,8 C 29,0 C 29,0 C 16,2 C 85 % 90 % 1015,0 hPa 0,0 l/m 0,0 km/h (0 Bft) - - 0,00 h 10,3 C 29,0 C 0,0 km/h (0 Bft)
17.06.2023 04:00 12,1 C 17,1 C 11,2 C 29,0 C 29,0 C 16,9 C 86 % 90 % 1014,9 hPa 0,0 l/m 0,0 km/h (0 Bft) - - 0,00 h 9,9 C 29,0 C 0,0 km/h (0 Bft)
17.06.2023 05:00 11,6 C 17,0 C 10,9 C 29,0 C 29,0 C 17,4 C 87 % 90 % 1015,2 hPa 0,0 l/m 0,0 km/h (0 Bft) - - 0,83 h 9,5 C 29,0 C 0,0 km/h (0 Bft)
17.06.2023 06:00 11,6 C 16,9 C 11,7 C 29,0 C 29,0 C 17,4 C 88 % 90 % 1015,2 hPa 0,0 l/m 0,0 km/h (0 Bft) - - 1,00 h 9,7 C 29,0 C 0,0 km/h (0 Bft)
17.06.2023 07:00 12,7 C 16,7 C 13,8 C 29,0 C 29,0 C 16,3 C 88 % 90 % 1015,2 hPa 0,0 l/m 0,0 km/h (0 Bft) - - 1,00 h 10,8 C 29,0 C 0,0 km/h (0 Bft)
17.06.2023 08:00 15,4 C 16,6 C 15,4 C 29,0 C 29,0 C 13,6 C 87 % 85 % 1015,4 hPa 0,0 l/m 0,0 km/h (0 Bft) - - 1,00 h 13,2 C 29,0 C 0,0 km/h (0 Bft)
17.06.2023 09:00 17,5 C 16,5 C 17,4 C 29,0 C 29,0 C 11,5 C 81 % 80 % 1015,9 hPa 0,0 l/m 0,0 km/h (0 Bft) - - 1,00 h 14,2 C 29,0 C 0,0 km/h (0 Bft)
17.06.2023 10:00 18,0 C 16,6 C 17,9 C 29,0 C 29,0 C 11,0 C 79 % 76 % 1015,5 hPa 0,0 l/m 0,0 km/h (0 Bft) - - 1,00 h 14,3 C 29,0 C 0,0 km/h (0 Bft)
17.06.2023 11:00 18,4 C 16,6 C 18,2 C 29,0 C 29,0 C 10,6 C 78 % 75 % 1015,7 hPa 0,0 l/m 0,0 km/h (0 Bft) - - 1,00 h 14,4 C 29,0 C 0,0 km/h (0 Bft)
17.06.2023 12:00 20,6 C 16,6 C 20,3 C 29,0 C 29,0 C 8,4 C 70 % 66 % 1015,3 hPa 0,0 l/m 0,0 km/h (0 Bft) - - 1,00 h 14,9 C 29,0 C 0,0 km/h (0 Bft)
17.06.2023 13:00 22,6 C 16,7 C 21,8 C 29,0 C 29,0 C 6,4 C 61 % 58 % 1014,9 hPa 0,0 l/m 0,0 km/h (0 Bft) - - 1,00 h 14,6 C 29,0 C 0,0 km/h (0 Bft)
17.06.2023 14:00 23,2 C 16,8 C 23,7 C 29,0 C 29,0 C 5,8 C 60 % 55 % 1014,5 hPa 0,0 l/m 0,0 km/h (0 Bft) - - 1,00 h 14,9 C 29,0 C 0,0 km/h (0 Bft)
17.06.2023 15:00 24,0 C 17,0 C 24,7 C 29,0 C 29,0 C 5,0 C 54 % 49 % 1014,1 hPa 0,0 l/m 0,0 km/h (0 Bft) - - 1,00 h 14,2 C 29,0 C 0,0 km/h (0 Bft)
17.06.2023 16:00 24,4 C 17,0 C 24,8 C 29,0 C 29,0 C 4,6 C 52 % 46 % 1013,9 hPa 0,0 l/m 0,0 km/h (0 Bft) - - 0,95 h 13,8 C 29,0 C 0,0 km/h (0 Bft)
17.06.2023 17:00 24,1 C 17,2 C 24,7 C 29,0 C 29,0 C 4,9 C 51 % 46 % 1013,6 hPa 0,0 l/m 0,0 km/h (0 Bft) - - 1,05 h 13,3 C 29,0 C 0,0 km/h (0 Bft)
17.06.2023 18:00 24,2 C 17,4 C 23,7 C 29,0 C 29,0 C 4,8 C 50 % 45 % 1013,7 hPa 0,0 l/m 0,0 km/h (0 Bft) - - 1,00 h 13,1 C 29,0 C 0,0 km/h (0 Bft)
17.06.2023 19:00 21,8 C 17,6 C 21,3 C 29,0 C 29,0 C 7,2 C 60 % 53 % 1014,3 hPa 0,0 l/m 0,0 km/h (0 Bft) - - 1,00 h 13,6 C 29,0 C 0,0 km/h (0 Bft)
17.06.2023 20:00 20,4 C 17,7 C 19,8 C 29,0 C 29,0 C 8,6 C 66 % 59 % 1014,5 hPa 0,0 l/m 0,0 km/h (0 Bft) - - 0,93 h 13,8 C 29,0 C 0,0 km/h (0 Bft)
17.06.2023 21:00 18,1 C 17,8 C 16,8 C 29,0 C 29,0 C 10,9 C 72 % 67 % 1014,8 hPa 0,0 l/m 0,0 km/h (0 Bft) - - 0,32 h 13,1 C 29,0 C 0,0 km/h (0 Bft)
17.06.2023 22:00 16,3 C 17,9 C 14,9 C 29,0 C 29,0 C 12,7 C 77 % 73 % 1015,0 hPa 0,0 l/m 0,0 km/h (0 Bft) - - 0,00 h 12,1 C 29,0 C 0,0 km/h (0 Bft)
17.06.2023 23:00 14,8 C 18,0 C 13,7 C 29,0 C 29,0 C 14,2 C 80 % 77 % 1015,1 hPa 0,0 l/m 0,0 km/h (0 Bft) - - 0,00 h 11,3 C 29,0 C 0,0 km/h (0 Bft)
18.06.2023 00:00 13,4 C 17,9 C 12,4 C 29,0 C 29,0 C 15,6 C 82 % 78 % 1015,3 hPa 0,0 l/m 0,0 km/h (0 Bft) - - 0,00 h 10,3 C 29,0 C 0,0 km/h (0 Bft)
18.06.2023 01:00 12,4 C 17,9 C 11,7 C 29,0 C 29,0 C 16,6 C 84 % 79 % 1015,1 hPa 0,0 l/m 0,0 km/h (0 Bft) - - 0,00 h 9,7 C 29,0 C 0,0 km/h (0 Bft)
18.06.2023 02:00 11,6 C 17,7 C 10,8 C 29,0 C 29,0 C 17,4 C 85 % 80 % 1014,9 hPa 0,0 l/m 0,0 km/h (0 Bft) - - 0,00 h 9,1 C 29,0 C 0,0 km/h (0 Bft)
18.06.2023 03:00 10,9 C 17,6 C 10,3 C 29,0 C 29,0 C 18,1 C 86 % 79 % 1015,0 hPa 0,0 l/m 0,0 km/h (0 Bft) - - 0,00 h 8,6 C 29,0 C 0,0 km/h (0 Bft)
18.06.2023 04:00 10,4 C 17,4 C 9,8 C 29,0 C 29,0 C 18,6 C 87 % 80 % 1015,1 hPa 0,0 l/m 0,0 km/h (0 Bft) - - 0,00 h 8,2 C 29,0 C 0,0 km/h (0 Bft)
18.06.2023 05:00 10,0 C 17,3 C 9,7 C 29,0 C 29,0 C 19,0 C 87 % 81 % 1015,2 hPa 0,0 l/m 0,0 km/h (0 Bft) - - 0,83 h 8,0 C 29,0 C 0,0 km/h (0 Bft)
18.06.2023 06:00 10,2 C 17,1 C 10,2 C 29,0 C 29,0 C 18,8 C 88 % 81 % 1015,3 hPa 0,0 l/m 0,0 km/h (0 Bft) - - 1,00 h 8,3 C 29,0 C 0,0 km/h (0 Bft)
18.06.2023 07:00 11,7 C 16,8 C 12,9 C 29,0 C 29,0 C 17,3 C 88 % 81 % 1015,7 hPa 0,0 l/m 0,0 km/h (0 Bft) - - 1,00 h 9,8 C 29,0 C 0,0 km/h (0 Bft)
18.06.2023 08:00 17,5 C 16,6 C 15,3 C 29,0 C 29,0 C 11,6 C 83 % 78 % 1015,7 hPa 0,0 l/m 0,0 km/h (0 Bft) - - 1,00 h 14,4 C 29,0 C 0,0 km/h (0 Bft)
18.06.2023 09:00 20,9 C 16,5 C 17,6 C 29,0 C 29,0 C 8,1 C 69 % 73 % 1015,9 hPa 0,0 l/m 0,0 km/h (0 Bft) - - 1,00 h 15,0 C 29,0 C 0,0 km/h (0 Bft)
18.06.2023 10:00 22,1 C 16,6 C 19,6 C 29,0 C 29,0 C 6,9 C 62 % 65 % 1015,8 hPa 0,0 l/m 0,0 km/h (0 Bft) - - 1,00 h 14,4 C 29,0 C 0,0 km/h (0 Bft)
18.06.2023 11:00 23,6 C 16,8 C 21,2 C 29,0 C 29,0 C 5,4 C 56 % 59 % 1015,8 hPa 0,0 l/m 0,0 km/h (0 Bft) - - 1,00 h 14,3 C 29,0 C 0,0 km/h (0 Bft)
18.06.2023 12:00 25,1 C 16,9 C 22,7 C 29,0 C 29,0 C 3,9 C 52 % 53 % 1015,7 hPa 0,0 l/m 0,0 km/h (0 Bft) - - 0,75 h 14,5 C 29,0 C 0,0 km/h (0 Bft)
18.06.2023 13:00 27,6 C 17,1 C 24,1 C 29,0 C 29,0 C 1,4 C 44 % 47 % 1015,4 hPa 0,0 l/m 0,0 km/h (0 Bft) - - 0,00 h 14,3 C 29,0 C 0,0 km/h (0 Bft)
18.06.2023 14:00 28,7 C 17,3 C 27,0 C 29,0 C 29,0 C 0,3 C 39 % 44 % 1015,1 hPa 0,0 l/m 0,0 km/h (0 Bft) - - 0,00 h 13,5 C 29,0 C 0,0 km/h (0 Bft)
18.06.2023 15:00 27,8 C 17,5 C 27,9 C 29,0 C 29,0 C 1,2 C 40 % 41 % 1014,7 hPa 0,0 l/m 0,0 km/h (0 Bft) - - 0,00 h 12,8 C 29,0 C 0,0 km/h (0 Bft)
18.06.2023 16:00 27,7 C 17,7 C 27,8 C 29,0 C 29,0 C 1,3 C 40 % 39 % 1014,6 hPa 0,0 l/m 0,0 km/h (0 Bft) - - 0,00 h 12,7 C 29,0 C 0,0 km/h (0 Bft)
18.06.2023 17:00 27,6 C 17,9 C 27,9 C 29,0 C 29,0 C 1,4 C 39 % 38 % 1014,4 hPa 0,0 l/m 0,0 km/h (0 Bft) - - 0,00 h 12,5 C 29,0 C 0,0 km/h (0 Bft)
18.06.2023 18:00 27,2 C 18,1 C 26,3 C 29,0 C 29,0 C 1,8 C 39 % 38 % 1014,1 hPa 0,0 l/m 0,0 km/h (0 Bft) - - 0,00 h 12,1 C 29,0 C 0,0 km/h (0 Bft)
18.06.2023 19:00 26,5 C 18,2 C 25,1 C 29,0 C 29,0 C 2,5 C 42 % 41 % 1014,2 hPa 0,0 l/m 0,0 km/h (0 Bft) - - 0,50 h 12,6 C 29,0 C 0,0 km/h (0 Bft)
18.06.2023 20:00 24,7 C 18,4 C 23,0 C 29,0 C 29,0 C 4,3 C 49 % 48 % 1014,2 hPa 0,0 l/m 0,0 km/h (0 Bft) - - 1,00 h 13,3 C 29,0 C 0,0 km/h (0 Bft)
18.06.2023 21:00 21,9 C 18,5 C 19,8 C 29,0 C 29,0 C 7,1 C 58 % 56 % 1014,6 hPa 0,0 l/m 0,0 km/h (0 Bft) - - 0,25 h 13,2 C 29,0 C 0,0 km/h (0 Bft)
18.06.2023 22:00 19,1 C 18,6 C 17,5 C 29,0 C 29,0 C 9,8 C 69 % 66 % 1014,7 hPa 0,0 l/m 0,0 km/h (0 Bft) - - 0,00 h 13,3 C 29,0 C 0,0 km/h (0 Bft)
18.06.2023 23:00 17,2 C 18,6 C 16,1 C 29,0 C 29,0 C 11,8 C 75 % 70 % 1014,8 hPa 0,0 l/m 0,0 km/h (0 Bft) - - 0,00 h 12,7 C 29,0 C 0,0 km/h (0 Bft)
Min-Datum _ 13.06.23 14.06.23 13.06.23 12.06.23 12.06.23 18.06.23 15.06.23 15.06.23 17.06.23 - 12.06.23 - - 13.06.23 12.06.23 12.06.23
_ Min-Zeit 05:20 07:42 05:25 00:00 00:00 14:30 18:50 17:55 17:20 - 00:00 - - 05:20 00:00 00:00
Minimum _ 8,2 C 16,2 C 7,6 C 29,0 C 29,0 C 0,0 C 33 % 30 % 1013,2 hPa - 0,0 km/h (0 Bft) - - 5,8 C 29,0 C 0,0 km/h (0 Bft)
Max-Datum _ 18.06.23 12.06.23 18.06.23 18.06.23 12.06.23 13.06.23 12.06.23 16.06.23 12.06.23 12.06.23 12.06.23 - 14.06.23 17.06.23 12.06.23 12.06.23
_ Max-Zeit 14:35 00:00 15:00 14:35 00:00 05:20 07:05 13:15 09:00 00:00 00:00 - 10:55 13:00 00:00 00:00
Maximum _ 29,1 C 18,8 C 29,1 C 29,1 C 29,0 C 20,8 C 88 % 90 % 1019,4 hPa 0,0 l/m 0,0 km/h
- - (0 Bft)
- 0,40 h 15,5 C 29,0 C 0,0 km/h
- - (0 Bft)
Durchschnitt _ 17,4 C 17,3 C 16,7 C 29,0 C 29,0 C 11,6 C 67 % 61 % 1016,6 hPa #0,0 l/m 0,0 km/h (0 Bft) - - #105:45 h 10,6 C 29,0 C 0,0 km/h (0 Bft)
2023 www.wetterstation-wechselburg.de